Terminal Aerodrome Forecast
Issued by NWS Charleston, SC

Home | Current Version | Previous Version | Text Only | Print | Product List | Glossary On
Versions: 1 2 3 4 5 6 7 8 9 10 11 12 13 14 15 16 17 18 19 20 21 22 23 24 25 26 27 28 29
719
FTUS42 KCHS 061128
TAFSAV
TAF
KSAV 061128Z 0612/0712 03009KT P6SM BKN050
     FM061900 02009KT P6SM -RA OVC050
     FM070100 36010G15KT 6SM -RA BR SCT010 OVC030
     FM070400 34012G18KT 5SM RA BR SCT008 OVC015=

USA.gov is the U.S. government's official web portal to all federal, state and local government web resources and services.